createdAt,value
2018-01-06T00:01:10.452Z,99074
2018-01-06T00:06:11.997Z,99077
2018-01-06T00:11:14.379Z,99075
2018-01-06T00:16:15.971Z,99083
2018-01-06T00:21:17.500Z,99071
2018-01-06T00:26:19.066Z,99090
2018-01-06T00:31:20.629Z,99087
2018-01-06T00:36:22.185Z,99097
2018-01-06T00:41:23.751Z,99097
2018-01-06T00:46:25.292Z,99090
2018-01-06T00:51:30.204Z,99083
2018-01-06T00:56:33.337Z,99095
2018-01-06T01:01:34.929Z,99099
2018-01-06T01:06:36.584Z,99100
2018-01-06T01:11:38.220Z,99097
2018-01-06T01:16:40.485Z,99106
2018-01-06T01:21:42.036Z,99106
2018-01-06T01:26:44.361Z,99114
2018-01-06T01:31:47.233Z,99112
2018-01-06T01:36:48.741Z,99110
2018-01-06T01:41:50.240Z,99103
2018-01-06T01:46:51.782Z,99125
2018-01-06T01:51:53.360Z,99136
2018-01-06T01:56:54.926Z,99138
2018-01-06T02:01:56.464Z,99132
2018-01-06T02:06:58.771Z,99138
2018-01-06T02:12:07.215Z,99134
2018-01-06T02:17:09.521Z,99122
2018-01-06T02:22:11.049Z,99134
2018-01-06T02:27:13.564Z,99126
2018-01-06T02:32:15.101Z,99113
2018-01-06T02:37:16.688Z,99108
2018-01-06T02:42:19.233Z,99112
2018-01-06T02:47:20.745Z,99116
2018-01-06T02:52:22.205Z,99119
2018-01-06T02:57:23.748Z,99110
2018-01-06T03:02:26.027Z,99111
2018-01-06T03:07:28.393Z,99118
2018-01-06T03:12:30.096Z,99118
2018-01-06T03:17:32.364Z,99111
2018-01-06T03:22:33.943Z,99115
2018-01-06T03:27:37.141Z,99129
2018-01-06T03:32:38.697Z,99127
2018-01-06T03:37:41.211Z,99129
2018-01-06T03:42:43.473Z,99124
2018-01-06T03:47:45.018Z,99130
2018-01-06T03:52:46.568Z,99124
2018-01-06T03:57:48.134Z,99141
2018-01-06T04:02:49.661Z,99142
2018-01-06T04:07:51.962Z,99132
2018-01-06T04:12:53.529Z,99137
2018-01-06T04:17:55.805Z,99146
2018-01-06T04:22:58.307Z,99134
2018-01-06T04:27:59.786Z,99129
2018-01-06T04:33:02.177Z,99129
2018-01-06T04:38:03.713Z,99139
2018-01-06T04:43:05.969Z,99143
2018-01-06T04:48:07.512Z,99139
2018-01-06T04:53:09.072Z,99127
2018-01-06T04:58:11.169Z,99133
2018-01-06T05:03:12.988Z,99138
2018-01-06T05:08:15.294Z,99141
2018-01-06T05:13:16.853Z,99163
2018-01-06T05:18:18.519Z,99169
2018-01-06T05:23:19.991Z,99167
2018-01-06T05:28:21.524Z,99171
2018-01-06T05:33:23.603Z,99178
2018-01-06T05:38:25.162Z,99186
2018-01-06T05:43:26.758Z,99185
2018-01-06T05:48:29.059Z,99181
2018-01-06T05:53:30.628Z,99184
2018-01-06T05:58:32.209Z,99182
2018-01-06T06:03:33.763Z,99195
2018-01-06T06:08:36.028Z,99182
2018-01-06T06:13:38.356Z,99184
2018-01-06T06:18:40.935Z,99180
2018-01-06T06:23:42.548Z,99177
2018-01-06T06:28:44.083Z,99171
2018-01-06T06:33:46.666Z,99184
2018-01-06T06:38:48.204Z,99188
2018-01-06T06:43:50.487Z,99188
2018-01-06T06:48:53.407Z,99182
2018-01-06T06:53:54.950Z,99176
2018-01-06T06:58:57.221Z,99185
2018-01-06T07:03:58.747Z,99194
2018-01-06T07:09:01.224Z,99207
2018-01-06T07:14:03.256Z,99217
2018-01-06T07:19:05.556Z,99216
2018-01-06T07:24:07.845Z,99217
2018-01-06T07:29:10.207Z,99230
2018-01-06T07:34:12.680Z,99226
2018-01-06T07:39:15.149Z,99239
2018-01-06T07:44:16.680Z,99239
2018-01-06T07:49:18.196Z,99250
2018-01-06T07:54:20.039Z,99264
2018-01-06T07:59:21.588Z,99275
2018-01-06T08:04:25.798Z,99289
2018-01-06T08:09:27.404Z,99300
2018-01-06T08:14:29.036Z,99289
2018-01-06T08:19:31.604Z,99286
2018-01-06T08:24:34.037Z,99287
2018-01-06T08:29:36.374Z,99316
2018-01-06T08:34:37.959Z,99315
2018-01-06T08:39:39.555Z,99307
2018-01-06T08:44:41.821Z,99306
2018-01-06T08:49:43.365Z,99318
2018-01-06T08:54:53.141Z,99318
2018-01-06T08:59:59.553Z,99321
2018-01-06T09:05:03.364Z,99321
2018-01-06T09:10:07.505Z,99329
2018-01-06T09:15:14.679Z,99339
2018-01-06T09:20:18.040Z,99332
2018-01-06T09:25:19.626Z,99339
2018-01-06T09:30:21.815Z,99338
2018-01-06T09:35:23.346Z,99353
2018-01-06T09:40:25.641Z,99345
2018-01-06T09:45:31.041Z,99353
2018-01-06T09:50:35.124Z,99367
2018-01-06T09:55:36.735Z,99366
2018-01-06T10:00:39.249Z,99371
2018-01-06T10:05:43.596Z,99361
2018-01-06T10:10:47.356Z,99362
2018-01-06T10:15:50.148Z,99357
2018-01-06T10:20:53.364Z,99359
2018-01-06T10:25:54.924Z,99368
2018-01-06T10:30:56.521Z,99366
2018-01-06T10:35:58.051Z,99378
2018-01-06T10:40:59.588Z,99377
2018-01-06T10:46:01.873Z,99377
2018-01-06T10:51:05.374Z,99377
2018-01-06T10:56:07.001Z,99377
2018-01-06T11:01:14.579Z,99386
2018-01-06T11:06:16.130Z,99374
2018-01-06T11:11:18.873Z,99381
2018-01-06T11:16:20.413Z,99379
2018-01-06T11:21:22.412Z,99374
2018-01-06T11:26:23.932Z,99370
2018-01-06T11:31:25.482Z,99377
2018-01-06T11:36:26.999Z,99366
2018-01-06T11:41:28.565Z,99368
2018-01-06T11:46:30.225Z,99369
2018-01-06T11:51:31.752Z,99352
2018-01-06T11:56:33.315Z,99344
2018-01-06T12:01:34.869Z,99355
2018-01-06T12:06:36.396Z,99348
2018-01-06T12:11:38.812Z,99354
2018-01-06T12:16:40.387Z,99356
2018-01-06T12:21:41.948Z,99352
2018-01-06T12:26:43.509Z,99350
2018-01-06T12:31:45.026Z,99349
2018-01-06T12:36:46.716Z,99346
2018-01-06T12:41:48.992Z,99351
2018-01-06T12:46:50.516Z,99353
2018-01-06T12:51:52.032Z,99357
2018-01-06T12:56:54.279Z,99365
2018-01-06T13:01:55.844Z,99365
2018-01-06T13:06:57.406Z,99366
2018-01-06T13:11:58.942Z,99350
2018-01-06T13:17:00.486Z,99360
2018-01-06T13:22:02.037Z,99349
2018-01-06T13:27:03.627Z,99358
2018-01-06T13:32:05.940Z,99370
2018-01-06T13:37:07.458Z,99381
2018-01-06T13:42:08.983Z,99376
2018-01-06T13:47:10.560Z,99387
2018-01-06T13:52:12.218Z,99397
2018-01-06T13:57:13.784Z,99402
2018-01-06T14:02:15.338Z,99411
2018-01-06T14:07:16.858Z,99411
2018-01-06T14:12:18.389Z,99419
2018-01-06T14:17:19.858Z,99429
2018-01-06T14:22:21.416Z,99437
2018-01-06T14:27:22.978Z,99441
2018-01-06T14:32:24.471Z,99453
2018-01-06T14:37:29.821Z,99452
2018-01-06T14:42:27.550Z,99455
2018-01-06T14:47:29.143Z,99453
2018-01-06T14:52:31.382Z,99460
2018-01-06T14:57:32.953Z,99463
2018-01-06T15:02:34.460Z,99471
2018-01-06T15:07:36.760Z,99478
2018-01-06T15:12:38.345Z,99481
2018-01-06T15:17:39.892Z,99480
2018-01-06T15:22:41.489Z,99476
2018-01-06T15:27:43.152Z,99478
2018-01-06T15:32:44.715Z,99486
2018-01-06T15:37:46.362Z,99493
2018-01-06T15:42:47.972Z,99490
2018-01-06T15:47:49.514Z,99496
2018-01-06T15:52:51.064Z,99499
2018-01-06T15:57:53.337Z,99509
2018-01-06T16:02:55.622Z,99516
2018-01-06T16:07:57.898Z,99525
2018-01-06T16:12:59.579Z,99520
2018-01-06T16:18:01.950Z,99527
2018-01-06T16:23:04.341Z,99531
2018-01-06T16:28:06.588Z,99541
2018-01-06T16:33:08.111Z,99547
2018-01-06T16:38:10.461Z,99554
2018-01-06T16:43:11.977Z,99565
2018-01-06T16:48:13.496Z,99570
2018-01-06T16:53:15.072Z,99580
2018-01-06T16:58:16.607Z,99583
2018-01-06T17:03:18.129Z,99596
2018-01-06T17:08:20.421Z,99598
2018-01-06T17:13:22.750Z,99605
2018-01-06T17:18:24.301Z,99604
2018-01-06T17:23:25.847Z,99617
2018-01-06T17:28:28.198Z,99610
2018-01-06T17:33:29.814Z,99624
2018-01-06T17:38:31.377Z,99627
2018-01-06T17:43:32.909Z,99634
2018-01-06T17:48:34.492Z,99632
2018-01-06T17:53:37.061Z,99641
2018-01-06T17:58:38.675Z,99645
2018-01-06T18:03:41.003Z,99650
2018-01-06T18:08:42.550Z,99654
2018-01-06T18:13:44.629Z,99660
2018-01-06T18:18:46.140Z,99659
2018-01-06T18:23:47.689Z,99661
2018-01-06T19:14:50.613Z,99693
2018-01-06T19:19:52.264Z,99693
2018-01-06T19:24:54.621Z,99700
2018-01-06T19:29:56.484Z,99698
2018-01-06T19:34:58.132Z,99709
2018-01-06T19:39:59.734Z,99712
2018-01-06T19:45:01.284Z,99725
2018-01-06T19:50:02.860Z,99724
2018-01-06T19:55:04.533Z,99719
2018-01-06T20:00:06.169Z,99729
2018-01-06T20:05:08.538Z,99746
2018-01-06T20:10:10.077Z,99750
2018-01-06T20:15:11.623Z,99746
2018-01-06T20:20:13.215Z,99752
2018-01-06T20:25:14.751Z,99756
2018-01-06T20:30:16.291Z,99767
2018-01-06T20:35:18.646Z,99775
2018-01-06T20:40:20.195Z,99776
2018-01-06T20:45:22.497Z,99783
2018-01-06T20:50:24.130Z,99779
2018-01-06T20:55:25.948Z,99782
2018-01-06T21:00:28.326Z,99796
2018-01-06T21:05:30.752Z,99786
2018-01-06T21:10:33.097Z,99802
2018-01-06T21:15:34.722Z,99797
2018-01-06T21:20:36.324Z,99794
2018-01-06T21:30:46.055Z,99811
2018-01-06T21:35:47.603Z,99822
2018-01-06T21:40:49.508Z,99809
2018-01-06T21:45:51.824Z,99812
2018-01-06T21:50:53.394Z,99801
2018-01-06T21:55:54.981Z,99819
2018-01-06T22:00:57.267Z,99822
2018-01-06T22:05:59.152Z,99820
2018-01-06T22:11:00.733Z,99824
2018-01-06T22:16:02.533Z,99845
2018-01-06T22:21:04.262Z,99843
2018-01-06T22:26:05.906Z,99855
2018-01-06T22:31:07.432Z,99859
2018-01-06T22:36:08.905Z,99875
2018-01-06T22:41:11.213Z,99875
2018-01-06T22:46:13.570Z,99889
2018-01-06T22:51:15.076Z,99884
2018-01-06T22:56:16.605Z,99892
2018-01-06T23:01:20.128Z,99892
2018-01-06T23:06:21.716Z,99895
2018-01-06T23:11:24.078Z,99888
2018-01-06T23:16:25.649Z,99897
2018-01-06T23:21:27.153Z,99893
2018-01-06T23:26:28.649Z,99891
2018-01-06T23:31:30.152Z,99907
2018-01-06T23:36:31.694Z,99919
2018-01-06T23:41:33.285Z,99930
2018-01-06T23:46:34.771Z,99932
2018-01-06T23:51:37.060Z,99923
2018-01-06T23:56:39.318Z,99930
